Terminal Aerodrome Forecast
Issued by NWS Billings, MT

Home | Current Version | Previous Version | Graphics & Text | Print | Product List | Glossary On
Versions: 1 2 3 4 5 6 7 8 9 10 11 12 13 14 15 16 17
000
FTUS45 KBYZ 240105 AAA
TAFMLS
TAF AMD
KMLS 240105Z 2401/2424 33010KT 5SM -SN BR OVC007
     FM240600 32006KT P6SM VCFG SCT002
     FM241500 VRB05KT P6SM SCT250=

USA.gov is the U.S. government's official web portal to all federal, state and local government web resources and services.